createdAt,value
2023-11-09T00:01:13.502Z,7.32
2023-11-09T00:03:41.080Z,7.26
2023-11-09T00:06:08.407Z,7.25
2023-11-09T00:08:35.592Z,7.22
2023-11-09T00:11:02.622Z,7.15
2023-11-09T00:13:29.680Z,7.15
2023-11-09T00:15:57.127Z,7.17
2023-11-09T00:18:24.150Z,7.18
2023-11-09T00:20:54.157Z,7.14
2023-11-09T00:23:21.677Z,7.12
2023-11-09T00:25:49.093Z,7.08
2023-11-09T00:28:16.524Z,7.02
2023-11-09T00:30:44.483Z,6.99
2023-11-09T00:33:11.693Z,6.98
2023-11-09T00:35:40.472Z,6.97
2023-11-09T00:38:09.022Z,6.95
2023-11-09T00:40:37.085Z,6.92
2023-11-09T00:43:04.018Z,6.90
2023-11-09T00:45:35.477Z,6.90
2023-11-09T00:48:04.151Z,6.83
2023-11-09T00:50:31.432Z,6.77
2023-11-09T00:52:58.429Z,6.75
2023-11-09T00:55:25.405Z,6.76
2023-11-09T00:57:52.338Z,6.75
2023-11-09T01:00:19.449Z,6.76
2023-11-09T01:02:49.882Z,6.73
2023-11-09T01:05:17.646Z,6.71
2023-11-09T01:07:45.284Z,6.66
2023-11-09T01:10:12.373Z,6.67
2023-11-09T01:12:39.306Z,6.65
2023-11-09T01:15:06.808Z,6.62
2023-11-09T01:17:37.380Z,6.54
2023-11-09T01:20:04.676Z,6.49
2023-11-09T01:22:31.773Z,6.49
2023-11-09T01:24:59.462Z,6.50
2023-11-09T01:27:26.508Z,6.49
2023-11-09T01:29:53.594Z,6.51
2023-11-09T01:32:20.583Z,6.52
2023-11-09T01:34:47.638Z,6.55
2023-11-09T01:37:14.598Z,6.55
2023-11-09T01:39:41.547Z,6.51
2023-11-09T01:42:09.002Z,6.50
2023-11-09T01:44:37.059Z,6.51
2023-11-09T01:47:04.587Z,6.48
2023-11-09T01:49:31.791Z,6.40
2023-11-09T01:51:58.943Z,6.34
2023-11-09T01:54:27.550Z,6.32
2023-11-09T01:56:54.505Z,6.29
2023-11-09T01:59:22.717Z,6.18
2023-11-09T02:01:53.822Z,6.13
2023-11-09T02:04:21.774Z,6.12
2023-11-09T02:06:49.369Z,6.07
2023-11-09T02:09:16.321Z,6.06
2023-11-09T02:11:43.926Z,6.06
2023-11-09T02:14:11.649Z,6.06
2023-11-09T02:16:39.269Z,6.08
2023-11-09T02:19:08.921Z,6.03
2023-11-09T02:21:56.804Z,5.96
2023-11-09T02:24:26.760Z,5.93
2023-11-09T02:26:56.408Z,5.94
2023-11-09T02:29:23.396Z,5.86
2023-11-09T02:31:50.741Z,5.80
2023-11-09T02:34:22.084Z,5.70
2023-11-09T02:36:49.419Z,5.63
2023-11-09T02:39:16.382Z,5.57
2023-11-09T02:41:44.153Z,5.48
2023-11-09T02:44:11.079Z,5.49
2023-11-09T02:46:38.592Z,5.49
2023-11-09T02:49:05.500Z,5.51
2023-11-09T02:51:32.716Z,5.51
2023-11-09T02:53:59.642Z,5.52
2023-11-09T02:56:27.054Z,5.43
2023-11-09T02:58:54.310Z,5.37
2023-11-09T03:01:21.768Z,5.37
2023-11-09T03:03:52.742Z,5.34
2023-11-09T03:06:22.572Z,5.29
2023-11-09T03:08:49.484Z,5.20
2023-11-09T03:11:20.644Z,5.11
2023-11-09T03:13:48.021Z,5.07
2023-11-09T03:16:15.069Z,4.96
2023-11-09T03:18:45.756Z,4.88
2023-11-09T03:21:12.722Z,4.88
2023-11-09T03:23:39.579Z,4.89
2023-11-09T03:26:06.501Z,4.83
2023-11-09T03:28:35.059Z,4.81
2023-11-09T03:31:05.370Z,4.77
2023-11-09T03:33:33.340Z,4.71
2023-11-09T03:36:01.058Z,4.65
2023-11-09T03:38:28.459Z,4.57
2023-11-09T03:40:55.770Z,4.51
2023-11-09T03:43:22.773Z,4.49
2023-11-09T03:45:49.692Z,4.44
2023-11-09T03:48:16.704Z,4.37
2023-11-09T03:50:44.416Z,4.36
2023-11-09T03:53:11.599Z,4.35
2023-11-09T03:55:38.675Z,4.28
2023-11-09T03:58:05.586Z,4.23
2023-11-09T04:00:32.492Z,4.23
2023-11-09T04:03:01.543Z,4.20
2023-11-09T04:05:28.442Z,4.11
2023-11-09T04:07:55.317Z,4.14
2023-11-09T04:10:22.951Z,4.03
2023-11-09T04:12:49.824Z,4.07
2023-11-09T04:15:16.752Z,4.03
2023-11-09T04:17:43.813Z,3.99
2023-11-09T04:20:10.995Z,3.99
2023-11-09T04:22:37.954Z,4.00
2023-11-09T04:25:05.510Z,4.04
2023-11-09T04:27:35.826Z,3.99
2023-11-09T04:30:02.969Z,3.99
2023-11-09T04:32:33.391Z,3.96
2023-11-09T04:35:00.428Z,3.94
2023-11-09T04:37:27.600Z,3.94
2023-11-09T04:39:59.893Z,3.95
2023-11-09T04:42:30.715Z,3.95
2023-11-09T04:45:01.169Z,3.99
2023-11-09T04:47:31.394Z,3.83
2023-11-09T04:50:03.200Z,4.01
2023-11-09T04:52:35.293Z,3.97
2023-11-09T04:55:12.191Z,4.01
2023-11-09T04:57:59.270Z,3.97
2023-11-09T05:01:01.680Z,3.96
2023-11-09T05:03:47.208Z,3.97
2023-11-09T05:06:32.507Z,4.00
2023-11-09T05:09:00.493Z,4.07
2023-11-09T05:11:27.572Z,4.15
2023-11-09T05:13:54.943Z,4.13
2023-11-09T05:16:22.321Z,4.12
2023-11-09T05:18:49.442Z,4.13
2023-11-09T05:21:16.338Z,4.14
2023-11-09T05:23:43.242Z,4.16
2023-11-09T05:26:10.208Z,4.13
2023-11-09T05:28:37.084Z,4.16
2023-11-09T05:31:04.041Z,4.15
2023-11-09T05:33:31.051Z,4.05
2023-11-09T05:35:58.954Z,4.07
2023-11-09T05:38:25.806Z,4.07
2023-11-09T05:40:53.392Z,4.09
2023-11-09T05:43:21.058Z,4.15
2023-11-09T05:45:48.046Z,4.22
2023-11-09T05:48:15.057Z,4.24
2023-11-09T05:50:42.608Z,4.33
2023-11-09T05:53:09.505Z,4.28
2023-11-09T05:55:36.488Z,4.28
2023-11-09T05:58:04.949Z,4.31
2023-11-09T06:00:32.561Z,4.41
2023-11-09T06:02:59.666Z,4.46
2023-11-09T06:05:26.763Z,4.48
2023-11-09T06:07:54.404Z,4.57
2023-11-09T06:10:22.836Z,4.67
2023-11-09T06:12:49.966Z,4.78
2023-11-09T06:15:17.154Z,4.95
2023-11-09T06:17:45.144Z,5.12
2023-11-09T06:20:18.444Z,5.14
2023-11-09T06:22:45.586Z,5.14
2023-11-09T06:25:14.006Z,5.15
2023-11-09T06:27:42.581Z,5.24
2023-11-09T06:30:10.441Z,5.36
2023-11-09T06:32:37.515Z,5.46
2023-11-09T06:35:06.240Z,5.57
2023-11-09T06:37:36.125Z,5.80
2023-11-09T06:40:12.714Z,5.96
2023-11-09T06:42:43.890Z,6.28
2023-11-09T06:45:10.845Z,6.27
2023-11-09T06:47:40.209Z,6.14
2023-11-09T06:50:22.463Z,6.05
2023-11-09T06:52:52.186Z,6.03
2023-11-09T06:55:19.235Z,6.08
2023-11-09T06:57:47.196Z,6.01
2023-11-09T07:00:14.693Z,6.03
2023-11-09T07:02:44.818Z,6.10
2023-11-09T07:05:12.405Z,6.25
2023-11-09T07:07:39.478Z,6.31
2023-11-09T07:10:08.607Z,6.34
2023-11-09T07:12:39.693Z,6.48
2023-11-09T07:15:10.548Z,6.50
2023-11-09T07:17:37.440Z,6.64
2023-11-09T07:20:04.738Z,6.75
2023-11-09T07:22:31.744Z,6.84
2023-11-09T07:25:08.216Z,6.68
2023-11-09T07:27:40.392Z,6.74
2023-11-09T07:30:08.221Z,6.75
2023-11-09T07:32:36.541Z,6.91
2023-11-09T07:35:03.798Z,7.00
2023-11-09T07:37:30.978Z,7.11
2023-11-09T07:39:59.036Z,7.32
2023-11-09T07:42:26.408Z,7.44
2023-11-09T07:44:53.364Z,7.21
2023-11-09T07:47:20.280Z,6.97
2023-11-09T07:49:48.331Z,6.93
2023-11-09T07:52:16.249Z,7.14
2023-11-09T07:54:45.268Z,7.20
2023-11-09T07:57:12.871Z,7.12
2023-11-09T07:59:40.159Z,7.11
2023-11-09T08:02:08.522Z,7.08
2023-11-09T08:04:36.049Z,7.25
2023-11-09T08:07:03.304Z,7.25
2023-11-09T08:09:31.344Z,7.28
2023-11-09T08:11:58.543Z,7.37
2023-11-09T08:14:27.621Z,7.50
2023-11-09T08:16:54.556Z,7.37
2023-11-09T08:19:23.524Z,7.52
2023-11-09T08:21:50.695Z,7.76
2023-11-09T08:24:18.213Z,7.69
2023-11-09T08:26:45.291Z,7.78
2023-11-09T08:29:12.250Z,7.95
2023-11-09T08:31:39.889Z,8.05
2023-11-09T08:34:08.151Z,8.17
2023-11-09T08:36:35.278Z,8.14
2023-11-09T08:39:04.000Z,8.39
2023-11-09T08:41:32.067Z,8.46
2023-11-09T08:43:58.987Z,8.52
2023-11-09T08:46:25.959Z,8.58
2023-11-09T08:48:52.884Z,8.70
2023-11-09T08:51:19.781Z,8.76
2023-11-09T08:53:50.754Z,8.78
2023-11-09T08:56:19.942Z,8.39
2023-11-09T08:58:47.649Z,8.76
2023-11-09T09:01:20.762Z,8.92
2023-11-09T09:03:51.341Z,8.62
2023-11-09T09:06:19.157Z,9.08
2023-11-09T09:08:47.957Z,9.24
2023-11-09T09:11:15.800Z,9.28
2023-11-09T09:13:45.907Z,9.42
2023-11-09T09:16:16.986Z,9.52
2023-11-09T09:18:47.750Z,9.53
2023-11-09T09:21:16.001Z,9.57
2023-11-09T09:23:42.953Z,9.65
2023-11-09T09:26:15.471Z,9.78
2023-11-09T09:28:50.325Z,9.97
2023-11-09T09:31:20.892Z,10.07
2023-11-09T09:34:03.858Z,10.03
2023-11-09T09:36:31.003Z,9.98
2023-11-09T09:38:58.387Z,10.05
2023-11-09T09:41:30.083Z,10.04
2023-11-09T09:44:00.139Z,10.21
2023-11-09T09:46:29.813Z,10.26
2023-11-09T09:48:56.901Z,10.50
2023-11-09T09:51:23.916Z,10.58
2023-11-09T09:53:52.708Z,10.62
2023-11-09T09:56:20.707Z,10.85
2023-11-09T09:58:49.209Z,11.13
2023-11-09T10:01:20.874Z,11.43
2023-11-09T10:03:50.295Z,11.52
2023-11-09T10:06:19.109Z,11.58
2023-11-09T10:08:46.469Z,11.60
2023-11-09T10:11:16.787Z,11.66
2023-11-09T10:13:47.957Z,11.71
2023-11-09T10:16:20.229Z,11.83
2023-11-09T10:18:50.280Z,11.95
2023-11-09T10:21:19.196Z,12.11
2023-11-09T10:23:54.547Z,12.09
2023-11-09T10:26:21.568Z,12.32
2023-11-09T10:28:56.767Z,12.42
2023-11-09T10:31:32.807Z,12.30
2023-11-09T10:33:59.872Z,12.47
2023-11-09T10:36:27.190Z,12.53
2023-11-09T10:38:54.410Z,12.49
2023-11-09T10:41:53.439Z,12.34
2023-11-09T10:44:11.646Z,12.16
2023-11-09T10:46:41.607Z,11.99
2023-11-09T10:49:09.757Z,11.91
2023-11-09T10:51:38.835Z,11.87
2023-11-09T10:54:09.433Z,11.92
2023-11-09T10:56:37.173Z,12.06
2023-11-09T10:59:06.591Z,12.20
2023-11-09T11:01:34.580Z,12.36
2023-11-09T11:04:09.694Z,12.36
2023-11-09T11:06:53.018Z,12.36
2023-11-09T11:09:26.910Z,12.17
2023-11-09T11:12:03.428Z,12.55
2023-11-09T11:14:33.256Z,12.61
2023-11-09T11:17:09.021Z,12.63
2023-11-09T11:19:50.887Z,12.71
2023-11-09T11:22:46.020Z,12.73
2023-11-09T11:25:39.343Z,12.79
2023-11-09T11:28:12.402Z,12.85
2023-11-09T11:30:42.729Z,12.58
2023-11-09T11:33:20.317Z,12.87
2023-11-09T11:35:52.862Z,13.01
2023-11-09T11:38:30.277Z,13.03
2023-11-09T11:41:04.076Z,13.08
2023-11-09T11:43:44.535Z,12.97
2023-11-09T11:46:18.704Z,12.92
2023-11-09T11:48:54.801Z,12.85
2023-11-09T11:51:23.449Z,12.92
2023-11-09T11:53:59.512Z,12.97
2023-11-09T11:56:34.422Z,13.02
2023-11-09T11:59:08.569Z,13.10
2023-11-09T12:01:35.994Z,13.08
2023-11-09T12:04:06.325Z,13.03
2023-11-09T12:06:37.045Z,13.03
2023-11-09T12:09:10.054Z,12.93
2023-11-09T12:11:48.505Z,12.85
2023-11-09T12:14:20.873Z,12.94
2023-11-09T12:16:48.750Z,12.89
2023-11-09T12:19:17.674Z,12.90
2023-11-09T12:21:48.584Z,12.87
2023-11-09T12:24:24.967Z,12.91
2023-11-09T12:27:10.109Z,12.86
2023-11-09T12:29:39.479Z,12.92
2023-11-09T12:32:07.908Z,12.95
2023-11-09T12:34:37.834Z,12.96
2023-11-09T12:37:12.302Z,12.94
2023-11-09T12:39:40.229Z,12.99
2023-11-09T12:42:07.198Z,13.08
2023-11-09T12:44:36.566Z,13.13
2023-11-09T12:47:22.407Z,13.14
2023-11-09T12:49:54.888Z,13.22
2023-11-09T12:52:28.123Z,13.26
2023-11-09T12:54:57.311Z,13.31
2023-11-09T12:57:24.710Z,13.34
2023-11-09T12:59:52.490Z,13.36
2023-11-09T13:02:22.147Z,13.44
2023-11-09T13:04:53.889Z,13.41
2023-11-09T13:07:26.405Z,13.44
2023-11-09T13:10:12.804Z,13.43
2023-11-09T13:12:44.852Z,13.47
2023-11-09T13:15:12.669Z,13.47
2023-11-09T13:17:54.757Z,13.48
2023-11-09T13:20:31.928Z,13.45
2023-11-09T13:23:08.731Z,13.46
2023-11-09T13:25:46.535Z,13.43
2023-11-09T13:28:17.265Z,13.50
2023-11-09T13:31:00.947Z,13.50
2023-11-09T13:33:38.732Z,13.45
2023-11-09T13:36:11.132Z,13.47
2023-11-09T13:38:58.150Z,13.47
2023-11-09T13:41:40.664Z,13.47
2023-11-09T13:44:08.675Z,13.44
2023-11-09T13:46:42.277Z,13.46
2023-11-09T13:49:30.666Z,13.45
2023-11-09T13:51:58.353Z,13.48
2023-11-09T13:54:37.683Z,13.50
2023-11-09T13:57:14.551Z,13.47
2023-11-09T13:59:46.624Z,13.49
2023-11-09T14:02:17.804Z,13.47
2023-11-09T14:04:53.174Z,13.49
2023-11-09T14:07:21.619Z,13.50
2023-11-09T14:09:48.570Z,13.51
2023-11-09T14:12:35.524Z,13.50
2023-11-09T14:15:10.063Z,13.46
2023-11-09T14:17:37.865Z,13.46
2023-11-09T14:20:14.078Z,13.47
2023-11-09T14:22:41.806Z,13.46
2023-11-09T14:25:11.215Z,13.46
2023-11-09T14:27:38.142Z,13.43
2023-11-09T14:30:05.509Z,13.42
2023-11-09T14:32:35.006Z,13.41
2023-11-09T14:35:03.555Z,13.37
2023-11-09T14:37:34.033Z,13.35
2023-11-09T14:40:20.264Z,13.31
2023-11-09T14:43:03.775Z,13.27
2023-11-09T14:45:36.611Z,13.23
2023-11-09T14:48:04.349Z,13.20
2023-11-09T14:50:33.758Z,13.15
2023-11-09T14:53:07.185Z,13.12
2023-11-09T14:55:35.223Z,13.07
2023-11-09T14:58:27.296Z,13.04
2023-11-09T15:00:54.222Z,13.03
2023-11-09T15:03:24.640Z,13.05
2023-11-09T15:05:59.061Z,13.02
2023-11-09T15:08:29.698Z,12.98
2023-11-09T15:10:57.915Z,12.97
2023-11-09T15:13:27.411Z,12.95
2023-11-09T15:15:54.742Z,12.89
2023-11-09T15:18:22.819Z,12.85
2023-11-09T15:20:50.290Z,12.79
2023-11-09T15:23:17.204Z,12.76
2023-11-09T15:25:48.748Z,12.73
2023-11-09T15:28:15.842Z,12.70
2023-11-09T15:30:43.245Z,12.64
2023-11-09T15:33:15.821Z,12.60
2023-11-09T15:35:47.293Z,12.52
2023-11-09T15:38:14.882Z,12.51
2023-11-09T15:41:15.213Z,12.49
2023-11-09T15:43:39.713Z,12.48
2023-11-09T15:46:12.389Z,12.46
2023-11-09T15:48:43.599Z,12.41
2023-11-09T15:51:10.813Z,12.45
2023-11-09T15:53:45.114Z,12.40
2023-11-09T15:56:13.562Z,12.42
2023-11-09T15:58:43.114Z,12.41
2023-11-09T16:01:11.582Z,12.42
2023-11-09T16:03:40.535Z,12.44
2023-11-09T16:06:10.325Z,12.43
2023-11-09T16:08:37.371Z,12.42
2023-11-09T16:11:04.627Z,12.42
2023-11-09T16:13:31.698Z,12.41
2023-11-09T16:15:59.309Z,12.39
2023-11-09T16:18:28.040Z,12.40
2023-11-09T16:20:55.047Z,12.36
2023-11-09T16:23:22.147Z,12.38
2023-11-09T16:25:49.458Z,12.40
2023-11-09T16:28:22.174Z,12.38
2023-11-09T16:30:50.962Z,12.43
2023-11-09T16:33:18.720Z,12.45
2023-11-09T16:35:46.778Z,12.46
2023-11-09T16:38:14.177Z,12.45
2023-11-09T16:40:41.964Z,12.49
2023-11-09T16:43:09.876Z,12.50
2023-11-09T16:45:37.057Z,12.47
2023-11-09T16:48:05.447Z,12.46
2023-11-09T16:50:33.684Z,12.46
2023-11-09T16:53:01.207Z,12.46
2023-11-09T16:55:29.240Z,12.47
2023-11-09T16:57:56.282Z,12.49
2023-11-09T17:00:24.882Z,12.49
2023-11-09T17:02:52.507Z,12.48
2023-11-09T17:05:20.052Z,12.49
2023-11-09T17:07:47.744Z,12.48
2023-11-09T17:10:15.697Z,12.49
2023-11-09T17:12:43.664Z,12.48
2023-11-09T17:15:13.337Z,12.48
2023-11-09T17:17:45.107Z,12.51
2023-11-09T17:20:13.973Z,12.49
2023-11-09T17:22:44.697Z,12.52
2023-11-09T17:25:12.047Z,12.50
2023-11-09T17:27:39.245Z,12.50
2023-11-09T17:30:13.792Z,12.51
2023-11-09T17:32:41.513Z,12.51
2023-11-09T17:35:10.330Z,12.51
2023-11-09T17:37:38.954Z,12.50
2023-11-09T17:40:12.488Z,12.49
2023-11-09T17:42:40.568Z,12.44
2023-11-09T17:45:08.555Z,12.41
2023-11-09T17:47:35.831Z,12.41
2023-11-09T17:50:03.002Z,12.40
2023-11-09T17:52:31.882Z,12.42
2023-11-09T17:54:59.715Z,12.40
2023-11-09T17:57:26.602Z,12.38
2023-11-09T17:59:53.545Z,12.38
2023-11-09T18:02:20.518Z,12.35
2023-11-09T18:04:47.528Z,12.34
2023-11-09T18:07:16.062Z,12.32
2023-11-09T18:09:44.824Z,12.35
2023-11-09T18:12:11.933Z,12.32
2023-11-09T18:14:44.957Z,12.29
2023-11-09T18:17:16.542Z,12.02
2023-11-09T18:19:43.358Z,12.25
2023-11-09T18:22:10.266Z,12.21
2023-11-09T18:24:38.452Z,12.20
2023-11-09T18:27:06.190Z,12.19
2023-11-09T18:29:33.889Z,12.14
2023-11-09T18:32:00.922Z,12.16
2023-11-09T18:34:29.761Z,12.15
2023-11-09T18:36:56.966Z,12.12
2023-11-09T18:39:24.065Z,12.13
2023-11-09T18:41:51.005Z,12.14
2023-11-09T18:44:20.128Z,12.13
2023-11-09T18:46:50.095Z,12.16
2023-11-09T18:51:47.195Z,12.10
2023-11-09T18:54:14.226Z,12.08
2023-11-09T18:56:41.200Z,12.07
2023-11-09T18:59:08.090Z,12.05
2023-11-09T19:01:35.879Z,12.02
2023-11-09T19:06:33.227Z,11.99
2023-11-09T19:09:00.750Z,12.01
2023-11-09T19:11:28.743Z,11.95
2023-11-09T19:13:56.345Z,11.90
2023-11-09T19:16:23.586Z,11.91
2023-11-09T19:18:51.389Z,11.87
2023-11-09T19:23:49.267Z,11.84
2023-11-09T19:26:16.613Z,11.81
2023-11-09T19:28:43.513Z,11.81
2023-11-09T19:31:10.748Z,11.81
2023-11-09T19:33:38.772Z,11.77
2023-11-09T19:36:09.789Z,11.75
2023-11-09T19:38:37.373Z,11.74
2023-11-09T19:41:04.542Z,11.73
2023-11-09T19:43:31.380Z,11.70
2023-11-09T19:45:58.483Z,11.64
2023-11-09T19:48:25.583Z,11.62
2023-11-09T19:50:52.585Z,11.59
2023-11-09T19:53:20.641Z,11.59
2023-11-09T19:55:47.812Z,11.57
2023-11-09T19:58:15.755Z,11.55
2023-11-09T20:00:45.260Z,11.53
2023-11-09T20:03:13.115Z,11.52
2023-11-09T20:05:41.254Z,11.51
2023-11-09T20:08:09.218Z,11.51
2023-11-09T20:10:36.301Z,11.51
2023-11-09T20:13:04.959Z,11.48
2023-11-09T20:15:32.452Z,11.47
2023-11-09T20:18:01.372Z,11.44
2023-11-09T20:20:31.768Z,11.44
2023-11-09T20:22:59.298Z,11.41
2023-11-09T20:25:27.208Z,11.40
2023-11-09T20:27:55.983Z,11.39
2023-11-09T20:30:23.663Z,11.40
2023-11-09T20:32:51.163Z,11.37
2023-11-09T20:35:18.548Z,11.35
2023-11-09T20:37:45.978Z,11.33
2023-11-09T20:40:18.072Z,11.31
2023-11-09T20:42:46.703Z,11.25
2023-11-09T20:45:14.067Z,11.25
2023-11-09T20:47:42.233Z,11.23
2023-11-09T20:50:15.640Z,11.19
2023-11-09T20:52:48.594Z,11.15
2023-11-09T20:55:21.400Z,11.07
2023-11-09T20:57:50.829Z,11.00
2023-11-09T21:00:25.264Z,10.88
2023-11-09T21:02:54.619Z,10.82
2023-11-09T21:05:22.942Z,10.77
2023-11-09T21:07:51.427Z,10.71
2023-11-09T21:10:18.863Z,10.60
2023-11-09T21:12:47.118Z,10.46
2023-11-09T21:15:14.373Z,10.31
2023-11-09T21:17:44.122Z,10.26
2023-11-09T21:20:13.665Z,10.22
2023-11-09T21:22:40.722Z,10.20
2023-11-09T21:25:08.728Z,10.12
2023-11-09T21:27:35.769Z,10.04
2023-11-09T21:30:03.785Z,9.95
2023-11-09T21:32:32.117Z,9.93
2023-11-09T21:34:59.123Z,9.91
2023-11-09T21:37:28.797Z,9.93
2023-11-09T21:39:56.063Z,9.91
2023-11-09T21:42:23.047Z,9.87
2023-11-09T21:44:50.145Z,9.81
2023-11-09T21:47:17.810Z,9.76
2023-11-09T21:49:48.529Z,9.71
2023-11-09T21:52:15.498Z,9.70
2023-11-09T21:54:42.964Z,9.69
2023-11-09T21:57:14.538Z,9.67
2023-11-09T21:59:42.194Z,9.69
2023-11-09T22:02:09.787Z,9.70
2023-11-09T22:04:39.032Z,9.70
2023-11-09T22:07:06.427Z,9.64
2023-11-09T22:09:34.598Z,9.60
2023-11-09T22:12:02.601Z,9.58
2023-11-09T22:14:30.547Z,9.58
2023-11-09T22:16:59.038Z,9.50
2023-11-09T22:19:26.144Z,9.53
2023-11-09T22:21:53.157Z,9.51
2023-11-09T22:24:20.133Z,9.52
2023-11-09T22:26:50.205Z,9.45
2023-11-09T22:29:17.152Z,9.44
2023-11-09T22:31:44.483Z,9.45
2023-11-09T22:34:11.414Z,9.42
2023-11-09T22:36:38.970Z,9.44
2023-11-09T22:39:06.706Z,9.48
2023-11-09T22:41:33.835Z,9.51
2023-11-09T22:44:00.794Z,9.53
2023-11-09T22:46:27.911Z,9.51
2023-11-09T22:48:55.718Z,9.54
2023-11-09T22:51:22.830Z,9.60
2023-11-09T22:53:49.965Z,9.68
2023-11-09T22:56:16.791Z,9.68
2023-11-09T22:58:43.679Z,9.64
2023-11-09T23:01:10.547Z,9.65
2023-11-09T23:03:37.720Z,9.60
2023-11-09T23:06:04.905Z,9.56
2023-11-09T23:08:35.404Z,9.60
2023-11-09T23:11:02.593Z,9.67
2023-11-09T23:13:29.738Z,9.73
2023-11-09T23:15:57.945Z,9.74
2023-11-09T23:18:25.678Z,9.76
2023-11-09T23:20:53.397Z,9.77
2023-11-09T23:23:20.377Z,9.77
2023-11-09T23:25:47.945Z,9.59
2023-11-09T23:28:15.072Z,9.39
2023-11-09T23:30:44.154Z,9.37
2023-11-09T23:33:11.414Z,9.34
2023-11-09T23:35:38.730Z,9.31
2023-11-09T23:38:05.541Z,9.38
2023-11-09T23:40:32.549Z,9.32
2023-11-09T23:42:59.398Z,9.25
2023-11-09T23:45:27.990Z,9.30
2023-11-09T23:47:55.058Z,9.31
2023-11-09T23:50:21.896Z,9.34
2023-11-09T23:52:48.910Z,9.33
2023-11-09T23:55:17.450Z,9.33
2023-11-09T23:57:46.586Z,9.32
